Terminal Aerodrome Forecast
Issued by NWS Houston/Galveston, TX

Home | Current Version | Previous Version | Text Only | Print | Product List | Glossary On
Versions: 1 2 3 4 5 6 7 8 9 10 11 12 13 14 15 16 17 18 19 20 21 22 23 24 25 26 27 28 29 30 31
000
FTUS44 KHGX 041734
TAFGLS
TAF
KGLS 041734Z 0418/0518 01010KT 5SM -SHRA BR VCTS OVC006CB
     FM042000 36012KT 6SM BR VCSH OVC007
     FM050500 03017KT 4SM -SHRA BR VCTS OVC005CB
     FM051200 04015G25KT 4SM -TSRA OVC007CB=

USA.gov is the U.S. government's official web portal to all federal, state and local government web resources and services.